Time;durP1;ratioP1;P1;durP2;ratioP2;P2;SDS_P1;SDS_P2;PMS_P1;PMS_P2;Temp;Humidity;BMP_temperature;BMP_pressure;BME280_temperature;BME280_humidity;BME280_pressure;Samples;Min_cycle;Max_cycle;Signal;HPM_P1;HPM_P2
2024/03/14 00:00:24;;;;;;;3.83;3.10;;;11.00;98.10;;;12.79;62.46;97688.09;5019167;28;20041;-49
2024/03/14 00:02:52;;;;;;;4.67;3.20;;;11.00;98.10;;;12.80;62.33;97683.59;5013832;28;20051;-45
2024/03/14 00:05:20;;;;;;;3.67;2.60;;;11.00;97.80;;;12.80;62.29;97680.91;5022781;28;20051;-47
2024/03/14 00:07:48;;;;;;;4.80;3.63;;;11.00;98.00;;;12.78;62.27;97670.41;5030999;28;20422;-47
2024/03/14 00:10:17;;;;;;;5.33;3.00;;;11.00;98.30;;;12.78;62.61;97667.72;5024966;28;20052;-45
2024/03/14 00:12:46;;;;;;;4.83;3.27;;;11.00;98.50;;;12.76;62.48;97671.59;5013661;28;20050;-45
2024/03/14 00:15:15;;;;;;;3.67;2.93;;;10.90;98.50;;;12.71;62.38;97665.94;5017260;28;20414;-44
2024/03/14 00:17:46;;;;;;;4.77;3.20;;;10.80;98.40;;;12.65;62.43;97661.28;5031186;28;20404;-44
2024/03/14 00:20:15;;;;;;;4.77;3.30;;;10.70;98.90;;;12.58;62.38;97671.81;5025066;28;20048;-45
2024/03/14 00:22:43;;;;;;;3.97;3.20;;;10.70;99.10;;;12.54;62.24;97667.81;5013556;28;20532;-45
2024/03/14 00:25:12;;;;;;;4.20;2.67;;;10.60;99.30;;;12.48;62.44;97677.34;5013822;28;20050;-44
2024/03/14 00:27:40;;;;;;;3.73;2.27;;;10.60;99.10;;;12.44;62.19;97673.38;5030837;28;20060;-46
2024/03/14 00:30:08;;;;;;;5.37;2.57;;;10.60;98.90;;;12.39;62.13;97671.22;5030429;28;20057;-46
2024/03/14 00:32:36;;;;;;;3.67;2.47;;;10.50;98.60;;;12.35;62.47;97669.09;5005516;28;20418;-45
2024/03/14 00:35:04;;;;;;;3.63;2.20;;;10.50;98.70;;;12.30;62.49;97671.44;5012096;28;20050;-45
2024/03/14 00:37:32;;;;;;;5.27;2.17;;;10.40;98.90;;;12.25;62.38;97665.75;5027036;28;20047;-44
2024/03/14 00:39:59;;;;;;;4.40;2.77;;;10.40;99.00;;;12.23;62.52;97673.09;5030528;28;20503;-45
2024/03/14 00:42:27;;;;;;;4.03;2.70;;;10.40;99.00;;;12.18;62.32;97669.13;5018844;28;20048;-47
2024/03/14 00:44:55;;;;;;;4.80;3.07;;;10.40;98.90;;;12.17;62.53;97658.59;5012591;28;20046;-49
2024/03/14 00:47:24;;;;;;;4.50;2.47;;;10.30;99.00;;;12.15;62.22;97655.28;5022117;28;20520;-45
2024/03/14 00:49:52;;;;;;;5.27;2.60;;;10.30;98.70;;;12.12;62.60;97658.31;5028985;28;20063;-47
2024/03/14 00:52:20;;;;;;;3.83;3.00;;;10.30;98.70;;;12.09;62.49;97654.13;5024431;28;20041;-45
2024/03/14 00:54:48;;;;;;;4.07;2.60;;;10.30;98.70;;;12.06;62.72;97656.28;5013143;28;20054;-46
2024/03/14 00:57:15;;;;;;;3.63;2.93;;;10.20;98.90;;;12.02;62.43;97651.31;5015426;28;20055;-45
2024/03/14 00:59:43;;;;;;;5.07;3.00;;;10.20;98.70;;;11.97;62.46;97650.16;5030052;28;20059;-46
2024/03/14 01:02:11;;;;;;;3.83;2.53;;;10.10;99.50;;;11.92;62.38;97649.81;5028977;28;20365;-45
2024/03/14 01:04:39;;;;;;;3.77;3.00;;;10.00;99.30;;;11.88;62.66;97646.63;5030157;28;20067;-47
2024/03/14 01:07:06;;;;;;;3.60;2.70;;;10.00;99.60;;;11.85;62.67;97646.97;5030238;28;20412;-44
2024/03/14 01:09:35;;;;;;;5.83;2.97;;;10.00;99.90;;;11.81;62.67;97646.47;5015491;28;20525;-45
2024/03/14 01:12:04;;;;;;;4.50;3.03;;;9.90;99.80;;;11.79;62.85;97645.81;5012556;28;20050;-46
2024/03/14 01:14:31;;;;;;;4.33;3.33;;;9.90;99.90;;;11.79;63.12;97639.66;5024584;28;20422;-45
2024/03/14 01:16:59;;;;;;;5.03;3.17;;;9.90;99.90;;;11.78;63.07;97636.13;5029803;28;20045;-44
2024/03/14 01:19:27;;;;;;;3.97;2.80;;;9.90;99.90;;;11.79;63.16;97637.00;5020764;28;20037;-47
2024/03/14 01:21:54;;;;;;;4.43;3.03;;;9.90;99.90;;;11.80;63.36;97635.97;5010866;28;20039;-46
2024/03/14 01:24:22;;;;;;;5.00;3.13;;;9.90;99.90;;;11.80;63.52;97639.47;5015938;28;20046;-46
2024/03/14 01:26:49;;;;;;;4.30;3.33;;;9.90;99.90;;;11.80;63.48;97638.66;5029573;28;20041;-48
2024/03/14 01:29:18;;;;;;;4.20;3.30;;;9.90;99.90;;;11.81;63.36;97635.00;5042645;28;20036;-45
2024/03/14 01:31:46;;;;;;;4.97;3.37;;;9.90;99.90;;;11.82;63.43;97633.97;5010286;28;20039;-48
2024/03/14 01:34:14;;;;;;;4.40;3.43;;;10.00;99.90;;;11.82;63.53;97626.81;5012234;28;20049;-45
2024/03/14 01:36:41;;;;;;;5.30;3.50;;;10.00;99.90;;;11.85;63.64;97627.47;5012420;28;20035;-46
2024/03/14 01:39:10;;;;;;;5.17;3.83;;;10.00;99.90;;;11.84;63.79;97626.63;5010524;28;20436;-47
2024/03/14 01:41:38;;;;;;;4.13;2.90;;;10.00;99.90;;;11.83;63.66;97624.97;5041912;28;20050;-46
2024/03/14 01:44:06;;;;;;;5.27;3.63;;;10.00;99.90;;;11.80;63.71;97620.78;5012321;28;20039;-48
2024/03/14 01:46:35;;;;;;;6.63;3.23;;;10.00;99.90;;;11.82;63.69;97618.81;5023696;28;20051;-46
2024/03/14 01:49:02;;;;;;;6.73;4.43;;;10.00;99.90;;;11.80;63.82;97617.31;5029150;28;20048;-47
2024/03/14 01:51:30;;;;;;;6.57;3.77;;;9.90;99.90;;;11.80;63.69;97617.31;5020014;28;20043;-45
2024/03/14 01:53:59;;;;;;;7.40;3.70;;;10.00;99.90;;;11.77;63.69;97609.66;5011949;28;20414;-47
2024/03/14 01:56:27;;;;;;;5.97;3.63;;;10.00;99.90;;;11.78;63.77;97611.31;5017784;28;20382;-45
2024/03/14 01:58:55;;;;;;;4.93;4.03;;;9.90;99.90;;;11.76;63.74;97606.13;5029701;28;20055;-46
2024/03/14 02:01:24;;;;;;;7.17;4.70;;;10.00;99.90;;;11.76;63.69;97603.47;5024856;28;20487;-48
2024/03/14 02:04:03;;;;;;;6.80;5.27;;;9.90;99.90;;;11.78;63.73;97595.31;5010752;28;20418;-45
2024/03/14 02:06:45;;;;;;;6.13;4.50;;;10.00;99.90;;;11.78;63.99;97597.97;5003037;28;20048;-45
2024/03/14 02:09:13;;;;;;;5.80;4.37;;;10.00;99.90;;;11.78;64.00;97597.97;5010735;28;20054;-45
2024/03/14 02:11:41;;;;;;;6.37;4.67;;;10.00;99.90;;;11.77;63.75;97586.47;5025865;28;20424;-45
2024/03/14 02:14:08;;;;;;;8.03;4.87;;;9.90;99.90;;;11.77;63.92;97591.81;5028268;28;20040;-45
2024/03/14 02:16:36;;;;;;;6.47;4.63;;;9.90;99.90;;;11.76;64.15;97594.66;5018119;28;20044;-45
2024/03/14 02:19:03;;;;;;;7.47;4.87;;;9.80;99.90;;;11.72;63.92;97588.81;5011812;28;20047;-47
2024/03/14 02:21:32;;;;;;;6.27;4.50;;;9.80;99.90;;;11.72;63.75;97588.00;5018897;28;20035;-45
2024/03/14 02:24:02;;;;;;;6.17;4.87;;;9.80;99.90;;;11.69;63.85;97589.16;5028775;28;20045;-46
2024/03/14 02:26:29;;;;;;;6.10;4.60;;;9.80;99.90;;;11.67;64.12;97593.84;5021411;28;20048;-48
2024/03/14 02:28:57;;;;;;;6.20;4.40;;;9.80;99.90;;;11.66;63.81;97594.00;5011949;28;20051;-49
2024/03/14 02:31:24;;;;;;;7.20;5.43;;;9.70;99.90;;;11.64;63.80;97591.50;5012234;28;20066;-46
2024/03/14 02:33:53;;;;;;;7.17;5.20;;;9.70;99.90;;;11.60;63.95;97593.66;5028615;28;20041;-46
2024/03/14 02:36:22;;;;;;;6.13;4.73;;;9.70;99.90;;;11.56;64.23;97595.00;5029340;28;20522;-45
2024/03/14 02:38:52;;;;;;;6.53;5.17;;;9.70;99.90;;;11.56;63.87;97591.53;5004609;28;20051;-45
2024/03/14 02:41:20;;;;;;;7.63;5.97;;;9.60;99.90;;;11.54;64.16;97591.69;5009878;28;20043;-47
2024/03/14 02:43:53;;;;;;;10.07;5.80;;;9.70;99.90;;;11.54;63.93;97588.19;4984897;28;20053;-45
2024/03/14 02:46:21;;;;;;;8.10;5.97;;;9.70;99.90;;;11.55;64.50;97589.84;5011351;28;20053;-46
2024/03/14 02:48:49;;;;;;;10.23;5.27;;;9.80;99.90;;;11.53;64.50;97579.34;5003722;28;20302;-47
2024/03/14 02:51:18;;;;;;;7.27;6.20;;;9.70;99.90;;;11.53;64.68;97586.50;5010992;28;20050;-47
2024/03/14 02:53:46;;;;;;;10.77;6.23;;;9.70;99.90;;;11.50;64.64;97577.03;5026422;28;20033;-45
2024/03/14 02:56:13;;;;;;;8.93;6.43;;;9.70;99.90;;;11.49;64.70;97575.34;5028571;28;20047;-45
2024/03/14 02:58:41;;;;;;;7.80;5.93;;;9.70;99.90;;;11.49;64.65;97570.03;5016472;28;20041;-45
2024/03/14 03:01:09;;;;;;;7.20;5.30;;;9.80;99.90;;;11.49;64.35;97578.00;5010770;28;20422;-48
2024/03/14 03:03:37;;;;;;;8.40;6.17;;;9.70;99.90;;;11.49;64.70;97575.34;5019643;28;20043;-47
2024/03/14 03:06:11;;;;;;;7.33;5.70;;;9.70;99.90;;;11.48;64.40;97572.88;5028731;28;20052;-46
2024/03/14 03:08:38;;;;;;;8.03;5.73;;;9.80;99.90;;;11.49;64.68;97575.34;5018630;28;20051;-46
2024/03/14 03:11:06;;;;;;;10.40;6.03;;;9.80;99.90;;;11.49;64.53;97572.69;5010721;28;20410;-45
2024/03/14 03:13:34;;;;;;;7.67;5.57;;;9.80;99.90;;;11.52;64.63;97580.34;5017239;28;20414;-47
2024/03/14 03:16:04;;;;;;;11.97;6.63;;;9.70;99.90;;;11.51;64.43;97575.19;5027978;28;20459;-46
2024/03/14 03:18:32;;;;;;;8.50;6.27;;;9.70;99.90;;;11.49;64.68;97566.53;5022509;28;20040;-48
2024/03/14 03:21:00;;;;;;;10.03;6.00;;;9.70;99.90;;;11.49;64.23;97566.53;5009156;28;20047;-48
2024/03/14 03:23:27;;;;;;;7.50;5.70;;;9.70;99.90;;;11.48;64.62;97571.03;5010164;28;20042;-45
2024/03/14 03:25:55;;;;;;;8.53;6.70;;;9.70;99.90;;;11.47;64.33;97566.69;5028342;28;20423;-49
2024/03/14 03:28:23;;;;;;;6.60;5.70;;;9.70;99.90;;;11.47;64.47;97572.03;5028042;28;20051;-46
2024/03/14 03:30:55;;;;;;;7.03;5.33;;;9.70;99.90;;;11.47;64.72;97566.69;5003010;28;20043;-46
2024/03/14 03:33:23;;;;;;;7.53;5.47;;;9.70;99.90;;;11.49;64.92;97567.34;5010668;28;20490;-45
2024/03/14 03:35:51;;;;;;;6.40;5.60;;;9.80;99.90;;;11.49;64.63;97562.03;5026972;28;20036;-46
2024/03/14 03:38:19;;;;;;;6.77;5.57;;;9.70;99.90;;;11.49;64.43;97570.03;5028290;28;20041;-45
2024/03/14 03:40:47;;;;;;;7.50;5.73;;;9.80;99.90;;;11.47;64.55;97565.88;5014711;28;20400;-44
2024/03/14 03:43:15;;;;;;;7.10;4.60;;;9.80;99.90;;;11.43;64.46;97568.03;5012119;28;20054;-45
2024/03/14 03:45:42;;;;;;;7.57;5.97;;;9.80;99.90;;;11.41;64.43;97564.69;5023151;28;20426;-46
2024/03/14 03:48:11;;;;;;;10.47;5.93;;;9.80;99.90;;;11.40;64.36;97563.88;5032111;28;20045;-45
2024/03/14 03:50:39;;;;;;;7.43;4.67;;;9.80;99.90;;;11.40;64.35;97566.53;5024398;28;20048;-45
2024/03/14 03:53:07;;;;;;;8.33;6.40;;;9.80;99.90;;;11.39;64.54;97566.72;5013849;28;20050;-44
2024/03/14 03:55:36;;;;;;;8.37;5.37;;;9.80;99.90;;;11.38;64.46;97562.38;5016768;28;20059;-45
2024/03/14 03:58:04;;;;;;;8.53;5.53;;;9.80;99.90;;;11.36;64.66;97565.22;5031160;28;20043;-46
2024/03/14 04:00:46;;;;;;;6.60;4.77;;;9.80;99.90;;;11.35;64.66;97565.38;5029602;28;20029;-45
2024/03/14 04:03:17;;;;;;;9.10;6.10;;;9.80;99.90;;;11.37;64.64;97564.19;5012535;28;20038;-45
2024/03/14 04:05:45;;;;;;;6.67;4.63;;;9.80;99.90;;;11.38;64.42;97565.03;5023634;28;20042;-46
2024/03/14 04:08:16;;;;;;;7.00;5.07;;;9.70;99.90;;;11.40;64.61;97558.53;5031634;28;20052;-46
2024/03/14 04:10:44;;;;;;;7.57;5.17;;;9.70;99.90;;;11.40;64.25;97563.06;5020178;28;20131;-46
2024/03/14 04:13:15;;;;;;;8.07;5.50;;;9.70;99.90;;;11.39;64.53;97562.19;5013364;28;20050;-48
2024/03/14 04:15:42;;;;;;;5.47;4.80;;;9.70;99.90;;;11.40;64.10;97558.53;5021571;28;20043;-45
2024/03/14 04:18:10;;;;;;;7.80;5.00;;;9.70;99.90;;;11.38;64.42;97560.56;5031010;28;20037;-45
2024/03/14 04:20:38;;;;;;;8.20;5.73;;;9.60;99.90;;;11.37;64.21;97561.53;5026280;28;20044;-47
2024/03/14 04:23:06;;;;;;;7.63;5.63;;;9.60;99.90;;;11.38;64.34;97560.56;5011967;28;20046;-46
2024/03/14 04:25:35;;;;;;;7.70;5.70;;;9.60;99.90;;;11.37;64.08;97553.53;5015055;28;20039;-48
2024/03/14 04:28:03;;;;;;;7.73;5.57;;;9.60;99.90;;;11.37;64.26;97550.06;5030311;28;20041;-47
2024/03/14 04:30:31;;;;;;;9.13;5.67;;;9.50;99.90;;;11.37;63.89;97547.38;5029124;28;20515;-47
2024/03/14 04:32:59;;;;;;;7.33;5.73;;;9.50;99.90;;;11.35;64.25;97552.88;5005514;28;20402;-46
2024/03/14 04:35:27;;;;;;;6.90;5.33;;;9.60;99.90;;;11.35;64.12;97544.06;5013145;28;20039;-47
2024/03/14 04:37:55;;;;;;;6.60;4.87;;;9.60;99.90;;;11.35;64.05;97538.72;5027928;28;20523;-45
2024/03/14 04:40:23;;;;;;;8.03;5.60;;;9.60;99.90;;;11.37;64.41;97537.56;5028690;28;20063;-44
2024/03/14 04:42:53;;;;;;;6.17;4.83;;;9.60;99.90;;;11.37;64.20;97531.41;5018106;28;20053;-45
2024/03/14 04:45:21;;;;;;;7.23;5.23;;;9.60;99.90;;;11.33;64.05;97541.56;5013256;28;20050;-49
2024/03/14 04:47:50;;;;;;;5.87;4.37;;;9.60;99.90;;;11.30;64.05;97541.06;5023589;28;20414;-47
2024/03/14 04:50:19;;;;;;;6.93;4.90;;;9.60;99.60;;;11.27;63.93;97544.06;5030034;28;20047;-45
2024/03/14 04:52:54;;;;;;;6.20;4.73;;;9.60;99.40;;;11.25;64.04;97546.06;5021170;28;20059;-47
2024/03/14 04:55:23;;;;;;;7.27;5.40;;;9.40;99.40;;;11.21;63.89;97546.41;5012043;28;20050;-48
2024/03/14 04:57:51;;;;;;;6.03;5.13;;;9.30;99.90;;;11.18;63.85;97535.25;5023375;28;20050;-45
2024/03/14 05:02:49;;;;;;;7.73;6.23;;;9.30;99.90;;;11.16;63.23;97534.56;5022603;28;20040;-46
2024/03/14 05:05:21;;;;;;;6.27;4.73;;;9.30;99.90;;;11.13;63.41;97535.75;5011396;28;20046;-47
2024/03/14 05:07:50;;;;;;;7.18;5.10;;;9.30;99.90;;;11.09;63.87;97531.75;5020766;28;20051;-45
2024/03/14 05:10:21;;;;;;;10.10;5.77;;;9.30;99.90;;;11.02;63.31;97533.41;5029430;28;20045;-44
2024/03/14 05:12:49;;;;;;;7.10;5.37;;;9.20;99.20;;;10.99;63.57;97534.59;5019802;28;20044;-47
2024/03/14 05:15:17;;;;;;;7.40;4.93;;;9.10;99.70;;;10.94;63.47;97541.41;5012588;28;20426;-44
2024/03/14 05:17:45;;;;;;;6.60;5.13;;;9.10;99.70;;;10.88;63.46;97540.25;5018765;28;20050;-48
2024/03/14 05:20:15;;;;;;;7.07;5.30;;;9.00;99.30;;;10.84;63.26;97544.25;5030182;28;20043;-45
2024/03/14 05:22:44;;;;;;;6.93;5.33;;;9.00;99.90;;;10.80;63.21;97545.56;5024748;28;20068;-45
2024/03/14 05:25:12;;;;;;;5.40;4.53;;;8.90;99.90;;;10.75;63.40;97547.88;5012415;28;20047;-45
2024/03/14 05:27:47;;;;;;;5.47;4.10;;;8.90;98.90;;;10.71;63.28;97549.22;5014039;28;20054;-47
2024/03/14 05:30:18;;;;;;;5.03;4.17;;;8.80;99.30;;;10.67;63.56;97542.56;5028315;28;20056;-45
2024/03/14 05:32:47;;;;;;;5.27;4.40;;;8.80;99.50;;;10.64;63.48;97544.56;5024607;28;20048;-46
2024/03/14 05:35:15;;;;;;;5.57;4.57;;;8.80;98.70;;;10.66;63.37;97541.69;5011986;28;20039;-46
2024/03/14 05:37:43;;;;;;;5.80;4.37;;;8.80;98.70;;;10.62;63.04;97543.88;5014780;28;20047;-45
2024/03/14 05:40:12;;;;;;;5.37;4.27;;;8.80;97.10;;;10.60;62.89;97543.22;5027412;28;20044;-45
2024/03/14 05:42:40;;;;;;;6.27;4.53;;;8.70;97.50;;;10.55;62.88;97539.38;5028113;28;20416;-45
2024/03/14 05:45:08;;;;;;;6.67;5.03;;;8.70;97.40;;;10.51;62.73;97541.53;5010251;28;20046;-48
2024/03/14 05:47:38;;;;;;;7.20;4.73;;;8.60;98.20;;;10.44;62.84;97544.00;5012087;28;20050;-45
2024/03/14 05:50:09;;;;;;;7.60;5.03;;;8.50;98.00;;;10.39;63.02;97542.81;5003843;28;20046;-46
2024/03/14 05:52:39;;;;;;;7.10;5.30;;;8.50;99.30;;;10.35;63.04;97545.00;5011949;28;20545;-46
2024/03/14 05:55:09;;;;;;;6.63;5.27;;;8.50;99.90;;;10.31;63.06;97542.78;5003781;28;20042;-47
2024/03/14 05:57:38;;;;;;;7.17;5.47;;;8.50;99.00;;;10.27;63.44;97534.28;5011878;28;20051;-46
2024/03/14 06:00:09;;;;;;;9.63;6.67;;;8.50;99.90;;;10.22;63.20;97537.44;5028758;28;20032;-45
2024/03/14 06:02:41;;;;;;;8.48;6.30;;;8.40;99.30;;;10.16;63.23;97537.25;5029041;28;20044;-46
2024/03/14 06:05:09;;;;;;;7.53;5.77;;;8.40;99.80;;;10.10;63.89;97533.41;5002773;28;20043;-46
2024/03/14 06:07:36;;;;;;;8.77;6.50;;;8.40;99.50;;;10.10;63.50;97545.84;5011812;28;20050;-44
2024/03/14 06:10:05;;;;;;;7.97;5.53;;;8.30;99.90;;;10.07;63.99;97538.22;5026401;28;20045;-49
2024/03/14 06:12:34;;;;;;;8.17;5.90;;;8.30;99.90;;;10.04;64.05;97542.00;5028967;28;20044;-46
2024/03/14 06:15:03;;;;;;;7.37;6.00;;;8.30;99.90;;;10.03;63.99;97546.50;5014978;28;20051;-45
2024/03/14 06:17:31;;;;;;;9.90;6.37;;;8.40;99.90;;;10.02;64.14;97541.34;5011590;28;20050;-46
2024/03/14 06:19:59;;;;;;;9.67;6.17;;;8.40;99.90;;;10.03;64.13;97546.50;5022005;28;20047;-47
2024/03/14 06:22:26;;;;;;;9.30;6.37;;;8.40;99.90;;;10.01;64.05;97547.66;5028849;28;20047;-47
2024/03/14 06:24:54;;;;;;;7.53;5.00;;;8.30;99.90;;;10.00;64.05;97544.19;5021255;28;20428;-45
2024/03/14 06:27:22;;;;;;;8.37;5.93;;;8.30;99.90;;;10.01;64.24;97542.34;5010253;28;20070;-48
2024/03/14 06:29:50;;;;;;;6.93;5.13;;;8.30;99.90;;;10.00;63.97;97538.00;5014174;28;20074;-46
2024/03/14 06:32:18;;;;;;;7.77;4.47;;;8.40;99.90;;;10.00;64.49;97543.31;5028412;28;20052;-48
2024/03/14 06:34:46;;;;;;;7.13;4.90;;;8.40;99.90;;;10.01;64.30;97543.16;5027881;28;20044;-47
2024/03/14 06:37:15;;;;;;;8.10;4.77;;;8.40;99.80;;;10.02;63.93;97544.00;5011089;28;20038;-49
2024/03/14 06:39:45;;;;;;;6.77;4.27;;;8.40;99.60;;;10.02;64.24;97547.50;5010679;28;20494;-46
2024/03/14 06:42:13;;;;;;;6.20;3.80;;;8.40;99.90;;;10.03;63.96;97551.81;5011405;28;20430;-47
2024/03/14 06:44:42;;;;;;;6.43;4.70;;;8.40;99.90;;;10.00;64.13;97552.16;5010260;28;20051;-46
2024/03/14 06:47:10;;;;;;;6.23;4.67;;;8.30;99.90;;;10.06;64.13;97542.69;5029047;28;20058;-46
2024/03/14 06:49:38;;;;;;;6.43;4.90;;;8.40;99.90;;;10.09;63.81;97550.34;5010744;28;20046;-45
2024/03/14 06:52:09;;;;;;;6.40;4.93;;;8.40;99.90;;;10.12;63.87;97551.84;5024553;28;20047;-47
2024/03/14 06:54:37;;;;;;;10.40;5.33;;;8.50;99.70;;;10.15;64.04;97549.69;5028386;28;20064;-47
2024/03/14 06:57:09;;;;;;;6.87;4.63;;;8.50;99.90;;;10.21;64.03;97550.88;5016088;28;20052;-47
2024/03/14 06:59:37;;;;;;;7.15;5.00;;;8.50;99.90;;;10.27;64.01;97558.22;5010871;28;20485;-45
2024/03/14 07:02:05;;;;;;;8.43;5.60;;;8.60;99.90;;;10.29;63.59;97558.88;5023300;28;20422;-49
2024/03/14 07:04:34;;;;;;;6.97;4.83;;;8.60;99.50;;;10.29;63.64;97558.88;5028500;28;20040;-45
2024/03/14 07:07:02;;;;;;;6.50;4.47;;;8.60;99.60;;;10.32;63.89;97561.28;5018361;28;20067;-46
2024/03/14 07:09:30;;;;;;;6.20;5.27;;;8.60;99.90;;;10.36;63.90;97559.13;5010947;28;20043;-45
2024/03/14 07:11:58;;;;;;;10.43;5.23;;;8.60;99.90;;;10.36;63.81;97559.94;5017197;28;20058;-46
2024/03/14 07:14:26;;;;;;;8.37;5.60;;;8.70;99.90;;;10.40;63.77;97550.63;5027104;28;20040;-46
2024/03/14 07:16:54;;;;;;;8.70;5.97;;;8.70;99.90;;;10.46;64.05;97561.66;5023256;28;20046;-44
2024/03/14 07:19:21;;;;;;;11.33;7.30;;;8.70;99.90;;;10.46;64.18;97558.97;5031609;28;20056;-45
2024/03/14 07:21:56;;;;;;;9.73;6.10;;;8.80;99.90;;;10.50;64.25;97563.81;5030983;28;20503;-46
2024/03/14 07:24:25;;;;;;;11.77;6.60;;;8.90;99.90;;;10.56;63.88;97563.16;5014478;28;20043;-47
2024/03/14 07:26:53;;;;;;;10.00;7.03;;;8.90;99.90;;;10.61;64.04;97560.84;5016202;28;20521;-46
2024/03/14 07:29:21;;;;;;;13.07;7.00;;;8.90;99.90;;;10.67;63.75;97555.88;5031739;28;20048;-49
2024/03/14 07:31:51;;;;;;;10.97;6.40;;;8.90;99.90;;;10.68;63.98;97553.03;5030906;28;20076;-50
2024/03/14 07:34:19;;;;;;;13.73;7.83;;;9.00;99.90;;;10.72;64.22;97553.53;5006787;28;20061;-46
2024/03/14 07:36:47;;;;;;;13.07;7.67;;;9.00;99.90;;;10.74;63.75;97555.06;5013000;28;20047;-45
2024/03/14 07:39:15;;;;;;;11.30;6.93;;;9.00;99.90;;;10.76;64.33;97547.72;5030639;28;20043;-46
2024/03/14 07:41:43;;;;;;;10.90;6.90;;;9.00;99.90;;;10.78;64.40;97556.38;5027600;28;20037;-45
2024/03/14 07:44:11;;;;;;;11.47;7.97;;;9.00;99.90;;;10.82;64.00;97554.22;5017112;28;20048;-46
2024/03/14 07:46:54;;;;;;;11.67;7.13;;;9.10;99.90;;;10.84;64.00;97550.38;5014885;28;20050;-46
2024/03/14 07:49:25;;;;;;;12.37;8.03;;;9.10;99.90;;;10.87;64.28;97562.53;5031401;28;20051;-47
2024/03/14 07:51:55;;;;;;;14.80;7.40;;;9.20;99.90;;;10.92;64.35;97552.22;5030162;28;20044;-49
2024/03/14 07:54:22;;;;;;;11.57;7.63;;;9.20;99.90;;;10.97;64.32;97552.56;5013675;28;20300;-46
2024/03/14 07:56:51;;;;;;;13.87;9.87;;;9.30;99.90;;;11.01;64.14;97550.38;5014271;28;20043;-45
2024/03/14 07:59:19;;;;;;;12.13;7.40;;;9.40;99.90;;;11.00;64.07;97546.91;5006096;28;20038;-45
2024/03/14 08:01:47;;;;;;;13.07;7.97;;;9.40;99.90;;;11.03;64.44;97551.06;5013283;28;20418;-48
2024/03/14 08:04:22;;;;;;;14.07;7.73;;;9.40;99.90;;;11.07;64.19;97554.22;5028947;28;20029;-46
2024/03/14 08:06:51;;;;;;;11.80;7.77;;;9.50;99.90;;;11.08;64.03;97548.72;5029930;28;20055;-45
2024/03/14 08:09:26;;;;;;;12.80;7.17;;;9.50;99.90;;;11.10;64.18;97553.91;5013591;28;20046;-44
2024/03/14 08:11:54;;;;;;;11.97;7.80;;;9.60;99.80;;;11.10;64.53;97557.38;5013047;28;20051;-46
2024/03/14 08:14:22;;;;;;;13.33;7.80;;;9.60;99.50;;;11.06;64.52;97549.91;5013335;28;20035;-46
2024/03/14 08:16:50;;;;;;;11.13;7.07;;;9.60;99.30;;;11.08;64.74;97556.72;5013308;28;20517;-46
2024/03/14 08:19:18;;;;;;;11.07;7.43;;;9.70;99.30;;;11.11;64.21;97550.22;5029815;28;20393;-46
2024/03/14 08:21:47;;;;;;;12.97;7.67;;;9.70;99.50;;;11.13;64.57;97548.25;5029361;28;20044;-46
2024/03/14 08:24:16;;;;;;;12.47;7.90;;;9.70;99.40;;;11.17;64.54;97553.06;5017002;28;20048;-46
2024/03/14 08:26:46;;;;;;;12.60;7.53;;;9.70;99.20;;;11.24;64.66;97555.88;5013240;28;20058;-46
2024/03/14 08:29:14;;;;;;;11.77;6.43;;;9.80;99.10;;;11.27;64.75;97560.88;5026844;28;20383;-49
2024/03/14 08:31:43;;;;;;;13.53;8.23;;;9.80;99.00;;;11.30;64.73;97560.56;5030758;28;20056;-46
2024/03/14 08:34:11;;;;;;;10.90;6.90;;;9.90;99.10;;;11.36;64.68;97556.38;5019921;28;20044;-46
2024/03/14 08:36:40;;;;;;;12.57;7.43;;;9.90;99.20;;;11.38;64.40;97555.22;5011919;28;20058;-47
2024/03/14 08:39:12;;;;;;;13.47;8.30;;;10.00;98.80;;;11.43;64.55;97557.38;5020482;28;20053;-46
2024/03/14 08:41:41;;;;;;;11.87;7.50;;;10.00;98.90;;;11.47;64.64;97564.03;5029710;28;20056;-48
2024/03/14 08:44:11;;;;;;;11.97;6.73;;;10.10;99.00;;;11.51;64.96;97556.53;5020420;28;20048;-49
2024/03/14 08:46:39;;;;;;;11.77;7.27;;;10.10;99.00;;;11.58;64.59;97558.34;5013022;28;20395;-47
2024/03/14 08:49:06;;;;;;;11.10;7.73;;;10.20;98.80;;;11.61;64.82;97558.03;5019458;28;20426;-48
2024/03/14 08:51:38;;;;;;;12.27;6.97;;;10.30;98.80;;;11.69;64.81;97550.97;5030049;28;20150;-49
2024/03/14 08:54:09;;;;;;;11.37;7.07;;;10.30;98.60;;;11.72;64.74;97556.00;5024923;28;20048;-50
2024/03/14 08:56:37;;;;;;;10.53;6.73;;;10.40;98.50;;;11.77;64.85;97559.00;5012770;28;20042;-50
2024/03/14 08:59:07;;;;;;;10.30;6.83;;;10.40;97.90;;;11.82;64.57;97561.94;5017509;28;20043;-47
2024/03/14 09:01:35;;;;;;;10.37;6.57;;;10.50;97.80;;;11.90;64.49;97550.47;5030038;28;20044;-46
2024/03/14 09:04:03;;;;;;;9.70;6.73;;;10.60;97.60;;;11.93;64.46;97555.47;4987627;28;20043;-46
2024/03/14 09:06:34;;;;;;;10.27;6.00;;;10.60;97.20;;;11.96;64.39;97558.63;4966605;28;20154;-51
2024/03/14 09:09:04;;;;;;;9.87;6.30;;;10.70;97.00;;;12.02;64.44;97555.25;4963795;28;20080;-48
2024/03/14 09:11:34;;;;;;;8.00;5.53;;;10.80;96.60;;;12.11;64.42;97560.56;4964888;28;20059;-49
2024/03/14 09:14:05;;;;;;;10.00;6.47;;;10.80;96.60;;;12.18;64.31;97559.69;4964991;28;20061;-46
2024/03/14 09:16:33;;;;;;;8.40;6.20;;;10.90;96.40;;;12.24;64.23;97557.34;4964749;28;20518;-45
2024/03/14 09:19:01;;;;;;;9.53;5.27;;;10.90;96.10;;;12.30;64.13;97554.81;4971208;28;20055;-49
2024/03/14 09:21:29;;;;;;;7.53;5.80;;;11.00;95.30;;;12.37;64.03;97554.97;4973438;28;20054;-45
2024/03/14 09:23:57;;;;;;;10.87;6.60;;;11.10;95.10;;;12.44;64.06;97544.41;4971200;28;20054;-47
2024/03/14 09:26:25;;;;;;;7.93;5.77;;;11.20;95.10;;;12.49;63.91;97552.72;4967370;28;20059;-46
2024/03/14 09:28:53;;;;;;;7.27;5.00;;;11.20;95.80;;;12.55;63.85;97544.00;4968607;28;20047;-48
2024/03/14 09:31:23;;;;;;;8.23;4.87;;;11.30;94.70;;;12.60;63.85;97550.47;4971933;28;20052;-48
2024/03/14 09:33:51;;;;;;;10.33;5.97;;;11.40;94.50;;;12.66;63.70;97548.94;4968703;28;20058;-46
2024/03/14 09:36:19;;;;;;;8.60;5.37;;;11.40;94.10;;;12.71;63.59;97551.06;4969188;28;20051;-45
2024/03/14 09:38:47;;;;;;;9.37;5.03;;;11.50;93.80;;;12.75;63.36;97539.03;4966281;28;20521;-47
2024/03/14 09:41:16;;;;;;;7.75;4.88;;;11.50;93.60;;;12.79;63.48;97543.84;4967599;28;20046;-47
2024/03/14 09:43:51;;;;;;;9.38;4.72;;;11.60;93.60;;;12.85;63.28;97546.81;4974157;28;20422;-47
2024/03/14 09:46:25;;;;;;;6.83;4.77;;;11.60;93.00;;;12.90;63.07;97550.59;4969234;28;20418;-48
2024/03/14 09:48:56;;;;;;;5.68;4.00;;;11.70;93.00;;;12.94;62.75;97546.56;4969065;28;20077;-47
2024/03/14 09:51:24;;;;;;;6.67;4.30;;;11.70;92.20;;;12.97;62.92;97543.53;4972000;28;20049;-48
2024/03/14 09:53:56;;;;;;;8.48;4.55;;;11.70;91.70;;;13.00;62.73;97542.34;4968041;28;20062;-46
2024/03/14 09:56:26;;;;;;;6.38;4.60;;;11.80;91.60;;;13.04;62.66;97540.97;4971117;28;20055;-46
2024/03/14 09:58:56;;;;;;;6.28;4.30;;;11.80;91.30;;;13.07;62.58;97539.81;4966927;28;20418;-48
2024/03/14 10:01:24;;;;;;;5.20;3.85;;;11.90;91.30;;;13.10;62.45;97532.22;4968934;28;20391;-46
2024/03/14 10:03:52;;;;;;;6.47;3.75;;;11.90;91.10;;;13.13;62.37;97534.56;4965640;28;20046;-47
2024/03/14 10:06:20;;;;;;;6.57;4.22;;;11.90;90.60;;;13.17;62.08;97532.38;4965640;28;20054;-47
2024/03/14 10:08:48;;;;;;;5.93;3.63;;;11.90;90.00;;;13.19;62.05;97533.84;4966843;28;20046;-46
2024/03/14 10:11:18;;;;;;;5.00;3.33;;;11.90;90.10;;;13.22;61.98;97534.47;4963354;28;20043;-46
2024/03/14 10:13:47;;;;;;;5.20;3.67;;;12.00;89.80;;;13.25;61.85;97528.78;4963895;28;20479;-49
2024/03/14 10:16:15;;;;;;;6.70;3.47;;;12.00;89.50;;;13.29;61.80;97527.41;4963893;28;20486;-45
2024/03/14 10:18:43;;;;;;;5.95;4.13;;;12.00;89.50;;;13.32;61.64;97527.91;4964892;28;20043;-48
2024/03/14 10:21:12;;;;;;;4.90;4.07;;;12.10;89.40;;;13.35;61.57;97530.22;4998993;28;20053;-45
2024/03/14 10:23:40;;;;;;;5.95;3.95;;;12.10;89.10;;;13.39;61.63;97528.81;4995484;28;20496;-49
2024/03/14 10:26:09;;;;;;;6.95;3.45;;;12.10;88.90;;;13.43;61.27;97523.13;5013700;28;20402;-47
2024/03/14 10:28:39;;;;;;;5.72;3.53;;;12.10;88.30;;;13.46;61.25;97512.06;5032121;28;20058;-50
2024/03/14 10:31:07;;;;;;;5.33;3.47;;;12.20;88.70;;;13.51;61.16;97520.38;5010930;28;20445;-46